Time;durP1;ratioP1;P1;durP2;ratioP2;P2;SDS_P1;SDS_P2;PMS_P1;PMS_P2;Temp;Humidity;BMP_temperature;BMP_pressure;BME280_temperature;BME280_humidity;BME280_pressure;Samples;Min_cycle;Max_cycle;Signal;HPM_P1;HPM_P2
2023/08/09 00:00:50;;;;;;;3.53;1.38;;;15.00;99.90;;;;;;5013035;28;20113;-75
2023/08/09 00:03:16;;;;;;;4.40;1.55;;;14.90;99.90;;;;;;5013330;28;20038;-75
2023/08/09 00:05:41;;;;;;;3.80;1.35;;;15.00;99.90;;;;;;4996664;28;20053;-75
2023/08/09 00:08:07;;;;;;;2.88;1.45;;;14.90;99.90;;;;;;5012950;28;20030;-75
2023/08/09 00:10:34;;;;;;;2.85;1.17;;;15.00;99.90;;;;;;4996516;28;20382;-74
2023/08/09 00:13:00;;;;;;;2.20;1.15;;;14.90;99.90;;;;;;4996414;28;20025;-75
2023/08/09 00:15:26;;;;;;;3.67;1.25;;;14.90;99.90;;;;;;5013988;28;20034;-75
2023/08/09 00:17:51;;;;;;;2.53;1.20;;;14.90;99.90;;;;;;5013045;28;20088;-75
2023/08/09 00:20:17;;;;;;;3.50;1.50;;;14.90;99.90;;;;;;5012854;28;20482;-75
2023/08/09 00:22:43;;;;;;;2.78;1.35;;;14.90;99.90;;;;;;5012891;28;20103;-75
2023/08/09 00:25:10;;;;;;;2.90;1.52;;;14.90;99.90;;;;;;4996299;28;20120;-75
2023/08/09 00:27:36;;;;;;;4.03;1.90;;;14.80;99.90;;;;;;5012903;28;20060;-74
2023/08/09 00:30:03;;;;;;;4.40;2.03;;;14.80;99.90;;;;;;5013809;28;20022;-74
2023/08/09 00:32:29;;;;;;;3.65;1.90;;;14.70;99.90;;;;;;5012778;28;20041;-74
2023/08/09 00:34:54;;;;;;;3.00;1.80;;;14.70;99.90;;;;;;5012467;28;20406;-75
2023/08/09 00:37:21;;;;;;;3.67;1.63;;;14.70;99.90;;;;;;5012652;28;20084;-75
2023/08/09 00:39:46;;;;;;;8.38;2.25;;;14.70;99.90;;;;;;5012475;28;20026;-75
2023/08/09 00:42:12;;;;;;;2.97;1.85;;;14.60;99.90;;;;;;5012913;28;20034;-74
2023/08/09 00:44:38;;;;;;;9.20;2.35;;;14.60;99.90;;;;;;4996141;28;20447;-74
2023/08/09 00:47:07;;;;;;;3.40;2.03;;;14.60;99.90;;;;;;5013590;28;20026;-75
2023/08/09 00:49:33;;;;;;;5.30;2.05;;;14.60;99.90;;;;;;5012426;28;20117;-83
2023/08/09 00:51:59;;;;;;;3.88;2.08;;;14.50;99.90;;;;;;5012601;28;20117;-83
2023/08/09 00:54:25;;;;;;;3.80;1.95;;;14.50;99.90;;;;;;5012451;28;20030;-83
2023/08/09 00:56:52;;;;;;;3.85;1.90;;;14.50;99.90;;;;;;5012414;28;20382;-83
2023/08/09 00:59:17;;;;;;;4.15;2.17;;;14.40;99.90;;;;;;4990961;28;20049;-83
2023/08/09 01:01:43;;;;;;;4.53;2.38;;;14.40;99.90;;;;;;4992245;28;20030;-83
2023/08/09 01:04:09;;;;;;;4.40;2.40;;;14.40;99.90;;;;;;5008527;28;20548;-83
2023/08/09 01:06:50;;;;;;;5.20;2.70;;;14.40;99.90;;;;;;5008993;28;20026;-83
2023/08/09 01:09:41;;;;;;;5.63;2.58;;;14.40;99.90;;;;;;4992756;28;20092;-82
2023/08/09 01:12:11;;;;;;;3.90;2.08;;;14.30;99.90;;;;;;4992517;28;20038;-82
2023/08/09 01:14:42;;;;;;;4.25;2.53;;;14.40;99.90;;;;;;5008850;28;20049;-82
2023/08/09 01:17:12;;;;;;;5.82;2.70;;;14.40;99.90;;;;;;4993843;28;20036;-83
2023/08/09 01:19:53;;;;;;;5.47;2.78;;;14.40;99.90;;;;;;4993693;28;20042;-82
2023/08/09 01:22:31;;;;;;;4.97;3.25;;;14.40;99.90;;;;;;4993695;28;20057;-83
2023/08/09 01:25:08;;;;;;;4.43;2.47;;;14.40;99.90;;;;;;4992493;28;20023;-83
2023/08/09 01:27:35;;;;;;;4.25;3.00;;;14.40;99.90;;;;;;4992384;28;20026;-81
2023/08/09 01:30:04;;;;;;;5.13;3.00;;;14.40;99.90;;;;;;4992382;28;20057;-83
2023/08/09 01:32:31;;;;;;;6.35;3.75;;;14.40;99.90;;;;;;4993666;28;20105;-83
2023/08/09 01:34:58;;;;;;;7.32;4.80;;;14.50;99.90;;;;;;4992136;28;20046;-82
2023/08/09 01:37:32;;;;;;;6.72;4.32;;;14.50;99.90;;;;;;4993672;28;20031;-83
2023/08/09 01:40:06;;;;;;;7.80;4.72;;;14.50;99.90;;;;;;4993588;28;20097;-83
2023/08/09 01:42:33;;;;;;;6.55;4.20;;;14.50;99.90;;;;;;5012272;28;20018;-82
2023/08/09 01:44:59;;;;;;;7.55;5.00;;;14.50;99.90;;;;;;4997130;28;20019;-83
2023/08/09 01:47:25;;;;;;;10.18;5.38;;;14.50;99.90;;;;;;5018475;28;20041;-82
2023/08/09 01:49:51;;;;;;;8.50;4.82;;;14.60;99.90;;;;;;4982870;28;20026;-83
2023/08/09 01:52:17;;;;;;;9.00;4.68;;;14.60;99.90;;;;;;4995525;28;20026;-80
2023/08/09 01:54:43;;;;;;;12.77;5.78;;;14.60;99.90;;;;;;4997218;28;20034;-83
2023/08/09 01:57:09;;;;;;;10.73;6.00;;;14.60;99.90;;;;;;5011992;28;20026;-82
2023/08/09 01:59:35;;;;;;;9.32;5.93;;;14.70;99.90;;;;;;4995806;28;20026;-82
2023/08/09 02:02:01;;;;;;;10.57;6.63;;;14.70;99.90;;;;;;4995533;28;20031;-83
2023/08/09 02:04:27;;;;;;;14.45;7.82;;;14.60;99.90;;;;;;4996073;28;20030;-82
2023/08/09 02:06:52;;;;;;;12.15;7.60;;;14.70;99.90;;;;;;4996892;28;20538;-82
2023/08/09 02:09:18;;;;;;;10.63;7.25;;;14.70;99.90;;;;;;4995640;28;20022;-82
2023/08/09 02:11:44;;;;;;;12.18;7.88;;;14.70;99.90;;;;;;4995666;28;20034;-82
2023/08/09 02:14:09;;;;;;;13.70;9.05;;;14.70;99.90;;;;;;5011766;28;20057;-82
2023/08/09 02:16:35;;;;;;;14.15;9.15;;;14.70;99.90;;;;;;4995678;28;20026;-83
2023/08/09 02:19:01;;;;;;;12.43;8.25;;;14.70;99.90;;;;;;4995655;28;20117;-82
2023/08/09 02:21:27;;;;;;;14.55;8.60;;;14.70;99.90;;;;;;4995296;28;20084;-81
2023/08/09 02:23:52;;;;;;;12.98;8.50;;;14.70;99.90;;;;;;4995335;28;20027;-82
2023/08/09 02:26:18;;;;;;;12.35;8.10;;;14.80;99.90;;;;;;4995298;28;20061;-82
2023/08/09 02:28:45;;;;;;;13.80;8.95;;;14.70;99.90;;;;;;4978963;28;20023;-82
2023/08/09 02:31:11;;;;;;;14.68;8.68;;;14.70;99.90;;;;;;4979081;28;20057;-82
2023/08/09 02:33:37;;;;;;;12.35;7.93;;;14.80;99.90;;;;;;5011747;28;20119;-82
2023/08/09 02:36:03;;;;;;;11.63;8.60;;;14.70;99.90;;;;;;5011198;28;20078;-83
2023/08/09 02:38:29;;;;;;;13.68;8.38;;;14.80;99.90;;;;;;4995232;28;20125;-82
2023/08/09 02:40:56;;;;;;;14.73;9.23;;;14.80;99.90;;;;;;4996119;28;20033;-82
2023/08/09 02:43:25;;;;;;;15.88;9.52;;;14.80;99.90;;;;;;5011331;28;20030;-82
2023/08/09 02:45:53;;;;;;;15.20;9.15;;;14.80;99.90;;;;;;4995465;28;20078;-81
2023/08/09 02:48:19;;;;;;;15.55;9.68;;;14.80;99.90;;;;;;4994838;28;20081;-82
2023/08/09 02:50:45;;;;;;;13.52;8.75;;;14.80;99.90;;;;;;4995980;28;20042;-82
2023/08/09 02:53:12;;;;;;;13.45;9.27;;;14.80;99.90;;;;;;4995951;28;20038;-82
2023/08/09 02:55:38;;;;;;;15.00;9.77;;;14.80;99.90;;;;;;4996013;28;20395;-82
2023/08/09 02:58:05;;;;;;;20.67;10.57;;;14.90;99.90;;;;;;4995984;28;20034;-82
2023/08/09 03:00:31;;;;;;;17.35;11.25;;;14.80;99.90;;;;;;4995941;28;20093;-82
2023/08/09 03:02:58;;;;;;;17.10;9.98;;;14.90;99.90;;;;;;5010918;28;20058;-82
2023/08/09 03:05:25;;;;;;;17.33;10.40;;;14.90;99.90;;;;;;5010795;28;20109;-82
2023/08/09 03:07:51;;;;;;;13.82;9.57;;;14.80;99.90;;;;;;4995654;28;20026;-80
2023/08/09 03:10:16;;;;;;;17.40;10.90;;;14.90;99.90;;;;;;4995752;28;20149;-82
2023/08/09 03:12:42;;;;;;;15.32;9.95;;;14.90;99.90;;;;;;4994547;28;20536;-82
2023/08/09 03:15:08;;;;;;;18.20;10.95;;;14.90;99.90;;;;;;4994348;28;20041;-82
2023/08/09 03:17:34;;;;;;;18.20;10.45;;;14.80;99.90;;;;;;4994303;28;20120;-82
2023/08/09 03:20:01;;;;;;;19.85;9.95;;;14.90;99.90;;;;;;5010463;28;20130;-83
2023/08/09 03:22:27;;;;;;;17.25;10.15;;;14.80;99.90;;;;;;4994294;28;20428;-81
2023/08/09 03:24:52;;;;;;;20.10;11.88;;;14.80;99.90;;;;;;4994125;28;20061;-82
2023/08/09 03:27:18;;;;;;;18.40;10.13;;;14.80;99.90;;;;;;4978025;28;20029;-82
2023/08/09 03:29:44;;;;;;;19.48;10.73;;;14.80;99.90;;;;;;4994035;28;20022;-83
2023/08/09 03:32:09;;;;;;;17.73;9.98;;;14.80;99.90;;;;;;4994027;28;20038;-82
2023/08/09 03:34:35;;;;;;;16.08;10.10;;;14.80;99.90;;;;;;4993757;28;20054;-82
2023/08/09 03:37:01;;;;;;;18.52;10.93;;;14.80;99.90;;;;;;4994983;28;20041;-82
2023/08/09 03:39:26;;;;;;;16.50;9.93;;;14.80;99.90;;;;;;4995108;28;20054;-82
2023/08/09 03:41:52;;;;;;;19.08;10.07;;;14.80;99.90;;;;;;5010129;28;20046;-82
2023/08/09 03:44:18;;;;;;;19.13;11.05;;;14.80;99.90;;;;;;4993846;28;20093;-82
2023/08/09 03:46:43;;;;;;;20.67;10.77;;;14.70;99.90;;;;;;4993722;28;20030;-82
2023/08/09 03:49:09;;;;;;;18.05;10.13;;;14.80;99.90;;;;;;4993543;28;20033;-81
2023/08/09 03:51:35;;;;;;;17.02;10.25;;;14.80;99.90;;;;;;4994844;28;20038;-76
2023/08/09 03:54:00;;;;;;;17.10;10.75;;;14.70;99.90;;;;;;4993569;28;20034;-75
2023/08/09 03:56:27;;;;;;;20.25;10.25;;;14.80;99.90;;;;;;4993668;28;20030;-75
2023/08/09 03:58:53;;;;;;;21.23;9.68;;;14.70;99.90;;;;;;4993523;28;20038;-75
2023/08/09 04:01:18;;;;;;;18.60;10.05;;;14.70;99.90;;;;;;4994593;28;20031;-75
2023/08/09 04:03:44;;;;;;;17.67;9.85;;;14.80;99.90;;;;;;4992776;28;20202;-75
2023/08/09 04:06:11;;;;;;;19.27;9.43;;;14.80;99.90;;;;;;4993458;28;20084;-75
2023/08/09 04:08:37;;;;;;;21.27;10.35;;;14.70;99.90;;;;;;5009862;28;20057;-75
2023/08/09 04:11:04;;;;;;;18.50;11.00;;;14.70;99.90;;;;;;4994575;28;20505;-75
2023/08/09 04:13:30;;;;;;;18.67;11.10;;;14.80;99.90;;;;;;4993199;28;20035;-75
2023/08/09 04:15:56;;;;;;;17.65;9.82;;;14.70;99.90;;;;;;4993259;28;20470;-75
2023/08/09 04:18:22;;;;;;;19.60;10.60;;;14.80;99.90;;;;;;4994433;28;20105;-76
2023/08/09 04:20:48;;;;;;;22.77;11.68;;;14.80;99.90;;;;;;4994506;28;20129;-75
2023/08/09 04:23:14;;;;;;;19.05;11.55;;;14.80;99.90;;;;;;4993063;28;20096;-75
2023/08/09 04:25:40;;;;;;;22.17;11.68;;;14.70;99.90;;;;;;4994223;28;20034;-75
2023/08/09 04:28:08;;;;;;;19.65;11.40;;;14.80;99.90;;;;;;4994361;28;20402;-75
2023/08/09 04:30:35;;;;;;;19.60;11.55;;;14.80;99.90;;;;;;4993607;28;20129;-75
2023/08/09 04:33:03;;;;;;;20.23;11.35;;;14.80;99.90;;;;;;4994250;28;20029;-75
2023/08/09 04:35:33;;;;;;;19.38;11.52;;;14.70;99.90;;;;;;4993158;28;20077;-75
2023/08/09 04:37:59;;;;;;;22.00;12.27;;;14.80;99.90;;;;;;4992887;28;20116;-76
2023/08/09 04:40:25;;;;;;;23.83;13.68;;;14.80;99.90;;;;;;4976940;28;20030;-75
2023/08/09 04:42:51;;;;;;;24.08;13.10;;;14.80;99.90;;;;;;4992771;28;20399;-75
2023/08/09 04:45:17;;;;;;;27.75;13.80;;;14.80;99.90;;;;;;5010602;28;20038;-75
2023/08/09 04:47:42;;;;;;;24.40;12.65;;;14.80;99.90;;;;;;5012482;28;20033;-75
2023/08/09 04:50:09;;;;;;;23.80;13.02;;;14.80;99.90;;;;;;5028805;28;20034;-75
2023/08/09 04:52:36;;;;;;;27.40;14.18;;;14.80;99.90;;;;;;5012393;28;20029;-75
2023/08/09 04:55:03;;;;;;;24.30;14.02;;;14.80;99.90;;;;;;5013734;28;20048;-76
2023/08/09 04:57:29;;;;;;;26.20;14.52;;;14.80;99.90;;;;;;5012223;28;20103;-75
2023/08/09 04:59:54;;;;;;;23.60;13.80;;;14.80;99.90;;;;;;5012231;28;20469;-76
2023/08/09 05:02:20;;;;;;;25.38;14.35;;;14.70;99.90;;;;;;5028815;28;20034;-75
2023/08/09 05:04:46;;;;;;;25.00;14.93;;;14.80;99.90;;;;;;5012218;28;20084;-75
2023/08/09 05:07:11;;;;;;;27.35;14.32;;;14.80;99.90;;;;;;4995988;28;20030;-75
2023/08/09 05:09:37;;;;;;;27.25;14.45;;;14.80;99.90;;;;;;5012444;28;20033;-75
2023/08/09 05:12:03;;;;;;;25.60;14.25;;;14.90;99.90;;;;;;5012188;28;20034;-75
2023/08/09 05:14:28;;;;;;;24.77;13.48;;;14.90;99.90;;;;;;5028973;28;20030;-75
2023/08/09 05:16:54;;;;;;;31.23;14.43;;;14.90;99.90;;;;;;5016567;28;20044;-75
2023/08/09 05:19:21;;;;;;;24.50;13.38;;;14.90;99.90;;;;;;5017441;28;20026;-75
2023/08/09 05:21:47;;;;;;;26.23;15.48;;;15.00;99.90;;;;;;5015905;28;20104;-76
2023/08/09 05:24:14;;;;;;;29.20;15.23;;;15.00;99.90;;;;;;5017321;28;20440;-76
2023/08/09 05:26:40;;;;;;;34.47;17.20;;;15.00;99.90;;;;;;5015871;28;20026;-76
2023/08/09 05:29:05;;;;;;;33.55;18.10;;;15.00;99.90;;;;;;5032366;28;20389;-75
2023/08/09 05:31:31;;;;;;;32.63;17.98;;;15.00;99.90;;;;;;5017415;28;20034;-76
2023/08/09 05:33:56;;;;;;;32.15;17.38;;;15.00;99.90;;;;;;5015876;28;20037;-75
2023/08/09 05:36:23;;;;;;;32.55;16.88;;;15.00;99.90;;;;;;5018964;28;20497;-75
2023/08/09 05:38:48;;;;;;;28.83;16.33;;;15.10;99.90;;;;;;5035832;28;20025;-76
2023/08/09 05:41:14;;;;;;;25.95;15.30;;;15.10;99.90;;;;;;5002488;28;20088;-76
2023/08/09 05:43:40;;;;;;;32.22;15.77;;;15.10;99.90;;;;;;5018943;28;20142;-75
2023/08/09 05:46:06;;;;;;;32.95;17.60;;;15.20;99.90;;;;;;5002586;28;20028;-76
2023/08/09 05:48:31;;;;;;;31.23;17.23;;;15.20;99.90;;;;;;5019195;28;20029;-75
2023/08/09 05:50:57;;;;;;;29.15;15.93;;;15.20;99.90;;;;;;5018702;28;20030;-76
2023/08/09 05:53:23;;;;;;;27.73;15.50;;;15.20;99.90;;;;;;5018550;28;20022;-75
2023/08/09 05:55:49;;;;;;;27.50;14.20;;;15.30;99.90;;;;;;5036346;28;20025;-75
2023/08/09 05:58:17;;;;;;;25.73;13.57;;;15.30;99.90;;;;;;5019019;28;20029;-76
2023/08/09 06:00:43;;;;;;;22.58;12.48;;;15.30;99.90;;;;;;5036380;28;20022;-75
2023/08/09 06:03:09;;;;;;;26.35;13.52;;;15.30;99.90;;;;;;5018429;28;20400;-76
2023/08/09 06:05:34;;;;;;;25.00;13.10;;;15.40;99.90;;;;;;5002222;28;20392;-75
2023/08/09 06:08:00;;;;;;;25.02;13.57;;;15.40;99.90;;;;;;5002142;28;20089;-75
2023/08/09 06:10:26;;;;;;;23.20;12.68;;;15.40;99.90;;;;;;5002202;28;20034;-75
2023/08/09 06:12:52;;;;;;;27.58;12.40;;;15.50;99.90;;;;;;5036097;28;20029;-76
2023/08/09 06:15:19;;;;;;;21.73;10.93;;;15.50;99.90;;;;;;5036063;28;20384;-76
2023/08/09 06:17:45;;;;;;;23.65;13.10;;;15.50;99.90;;;;;;5018309;28;20032;-75
2023/08/09 06:20:14;;;;;;;24.88;12.93;;;15.50;99.90;;;;;;5035973;28;20029;-76
2023/08/09 06:22:40;;;;;;;25.27;12.70;;;15.50;99.90;;;;;;5002279;28;20049;-76
2023/08/09 06:25:09;;;;;;;24.05;11.35;;;15.40;99.90;;;;;;5035940;28;20440;-76
2023/08/09 06:27:35;;;;;;;21.08;11.88;;;15.40;99.90;;;;;;5001198;28;20018;-83
2023/08/09 06:30:02;;;;;;;21.50;11.55;;;15.50;99.90;;;;;;5018239;28;20039;-82
2023/08/09 06:32:28;;;;;;;19.90;10.95;;;15.50;99.90;;;;;;5017985;28;20005;-82
2023/08/09 06:34:54;;;;;;;18.33;10.95;;;15.50;99.90;;;;;;5034246;28;20564;-81
2023/08/09 06:37:19;;;;;;;21.25;11.68;;;15.50;99.90;;;;;;5017769;28;20034;-82
2023/08/09 06:39:45;;;;;;;16.13;10.38;;;15.60;99.90;;;;;;5001611;28;20032;-82
2023/08/09 06:42:14;;;;;;;19.60;10.32;;;15.60;99.90;;;;;;5017939;28;20473;-83
2023/08/09 06:44:39;;;;;;;18.67;10.50;;;15.60;99.90;;;;;;5035521;28;20504;-81
2023/08/09 06:47:06;;;;;;;19.27;10.18;;;15.70;99.90;;;;;;5035368;28;20025;-82
2023/08/09 06:49:31;;;;;;;17.17;10.60;;;15.70;99.90;;;;;;5035317;28;20057;-81
2023/08/09 06:52:00;;;;;;;16.67;9.82;;;15.80;99.90;;;;;;5001369;28;20087;-82
2023/08/09 06:54:26;;;;;;;21.02;11.23;;;15.90;99.90;;;;;;5001633;28;20032;-82
2023/08/09 06:56:52;;;;;;;21.40;11.68;;;15.90;99.90;;;;;;5001182;28;20029;-76
2023/08/09 06:59:18;;;;;;;19.15;11.43;;;15.90;99.90;;;;;;5017387;28;20121;-75
2023/08/09 07:01:47;;;;;;;17.60;10.23;;;16.00;99.90;;;;;;4996937;28;20038;-75
2023/08/09 07:04:13;;;;;;;16.25;10.07;;;16.10;99.90;;;;;;4986316;28;20101;-76
2023/08/09 07:06:39;;;;;;;17.40;10.20;;;16.10;99.90;;;;;;4997937;28;20033;-75
2023/08/09 07:09:05;;;;;;;16.27;9.48;;;16.20;99.90;;;;;;5014834;28;20036;-76
2023/08/09 07:11:32;;;;;;;15.07;9.50;;;16.30;99.90;;;;;;4997661;28;20034;-76
2023/08/09 07:13:58;;;;;;;15.57;9.90;;;16.30;99.90;;;;;;4997847;28;20030;-76
2023/08/09 07:16:24;;;;;;;13.38;8.30;;;16.40;99.90;;;;;;4997826;28;20034;-75
2023/08/09 07:18:49;;;;;;;13.48;9.10;;;16.40;99.90;;;;;;4997468;28;20029;-76
2023/08/09 07:21:15;;;;;;;11.68;7.35;;;16.50;99.90;;;;;;4981447;28;20072;-76
2023/08/09 07:23:41;;;;;;;12.88;7.05;;;16.50;99.90;;;;;;5013731;28;20022;-76
2023/08/09 07:26:07;;;;;;;11.38;6.45;;;16.50;99.90;;;;;;4997310;28;20092;-76
2023/08/09 07:28:32;;;;;;;11.40;7.60;;;16.60;99.90;;;;;;4997213;28;20040;-76
2023/08/09 07:30:58;;;;;;;13.65;7.65;;;16.70;99.90;;;;;;4997547;28;20033;-75
2023/08/09 07:33:24;;;;;;;13.52;8.75;;;16.70;99.90;;;;;;4997163;28;20030;-76
2023/08/09 07:35:49;;;;;;;12.82;8.75;;;16.70;99.90;;;;;;5010048;28;20050;-77
2023/08/09 07:38:18;;;;;;;11.63;8.15;;;16.80;99.90;;;;;;5032402;28;20481;-77
2023/08/09 07:40:43;;;;;;;11.20;8.02;;;16.80;99.90;;;;;;5016317;28;20034;-77
2023/08/09 07:43:09;;;;;;;12.73;7.70;;;16.90;99.90;;;;;;5016653;28;20037;-76
2023/08/09 07:45:35;;;;;;;15.13;9.43;;;17.00;99.90;;;;;;5016403;28;20424;-76
2023/08/09 07:48:01;;;;;;;13.60;9.05;;;17.00;99.90;;;;;;5032896;28;20052;-76
2023/08/09 07:50:27;;;;;;;13.57;9.18;;;17.10;99.90;;;;;;5016416;28;20025;-77
2023/08/09 07:52:53;;;;;;;11.90;7.65;;;17.10;99.90;;;;;;5032864;28;20028;-76
2023/08/09 07:55:19;;;;;;;9.65;7.25;;;17.20;99.90;;;;;;5032955;28;20026;-76
2023/08/09 07:57:45;;;;;;;11.43;7.78;;;17.20;99.90;;;;;;5016529;28;20116;-76
2023/08/09 08:00:12;;;;;;;12.18;7.88;;;17.30;99.90;;;;;;5034068;28;20499;-76
2023/08/09 08:02:42;;;;;;;11.85;7.13;;;17.40;99.90;;;;;;5016178;28;20036;-77
2023/08/09 08:05:11;;;;;;;9.95;6.18;;;17.30;99.90;;;;;;5032986;28;20018;-76
2023/08/09 08:07:38;;;;;;;9.45;5.95;;;17.40;99.90;;;;;;5017139;28;20026;-77
2023/08/09 08:10:06;;;;;;;8.32;5.95;;;17.50;99.90;;;;;;5032608;28;20025;-83
2023/08/09 08:12:31;;;;;;;7.97;5.95;;;17.70;99.90;;;;;;5033924;28;20030;-77
2023/08/09 08:14:58;;;;;;;9.60;6.53;;;17.90;99.90;;;;;;5016143;28;20037;-76
2023/08/09 08:17:23;;;;;;;11.55;5.70;;;17.90;99.90;;;;;;5032985;28;20029;-83
2023/08/09 08:19:49;;;;;;;8.15;5.20;;;18.00;99.90;;;;;;4983812;28;20183;-82
2023/08/09 08:22:14;;;;;;;8.75;5.10;;;18.00;99.90;;;;;;5015835;28;20095;-82
2023/08/09 08:24:40;;;;;;;7.57;4.80;;;18.00;99.90;;;;;;5015976;28;20099;-83
2023/08/09 08:27:06;;;;;;;7.60;4.82;;;18.10;99.90;;;;;;4999309;28;20022;-82
2023/08/09 08:29:32;;;;;;;10.30;5.45;;;18.20;99.90;;;;;;4999412;28;20030;-82
2023/08/09 08:31:57;;;;;;;11.00;5.30;;;18.30;99.90;;;;;;5032090;28;20084;-78
2023/08/09 08:34:23;;;;;;;9.38;5.25;;;18.50;99.90;;;;;;4999864;28;20033;-78
2023/08/09 08:36:50;;;;;;;8.70;5.10;;;18.60;99.90;;;;;;5015769;28;20433;-78
2023/08/09 08:39:19;;;;;;;12.40;6.13;;;18.70;99.90;;;;;;5015804;28;20185;-78
2023/08/09 08:41:48;;;;;;;8.50;5.15;;;18.80;99.90;;;;;;5000167;28;20052;-78
2023/08/09 08:44:14;;;;;;;7.85;5.55;;;18.80;99.90;;;;;;5032127;28;20465;-76
2023/08/09 08:46:41;;;;;;;7.60;4.55;;;18.90;99.90;;;;;;4999270;28;20025;-77
2023/08/09 08:49:14;;;;;;;8.57;4.32;;;19.00;99.90;;;;;;5015404;28;20034;-79
2023/08/09 08:51:43;;;;;;;8.50;3.95;;;19.10;99.90;;;;;;5031829;28;20072;-82
2023/08/09 08:54:10;;;;;;;5.75;3.55;;;19.20;99.90;;;;;;5033065;28;20029;-82
2023/08/09 08:56:35;;;;;;;7.00;3.70;;;19.30;99.90;;;;;;5033200;28;20032;-83
2023/08/09 08:59:01;;;;;;;6.85;3.10;;;19.30;99.90;;;;;;5015326;28;20041;-79
2023/08/09 09:01:28;;;;;;;6.40;3.63;;;19.30;99.90;;;;;;5033814;28;20048;-83
2023/08/09 09:03:54;;;;;;;7.93;2.72;;;19.30;99.90;;;;;;5015625;28;20117;-78
2023/08/09 09:06:20;;;;;;;8.57;3.92;;;19.40;99.90;;;;;;4999310;28;20455;-79
2023/08/09 09:08:52;;;;;;;5.07;2.60;;;19.50;99.90;;;;;;4998975;28;20022;-79
2023/08/09 09:11:18;;;;;;;5.28;2.80;;;19.70;99.90;;;;;;5031584;28;20532;-79
2023/08/09 09:13:46;;;;;;;6.43;2.60;;;19.80;99.90;;;;;;5015344;28;20116;-79
2023/08/09 09:16:13;;;;;;;6.57;3.30;;;19.90;99.90;;;;;;5032960;28;20021;-78
2023/08/09 09:18:44;;;;;;;6.35;2.90;;;20.00;99.70;;;;;;4999198;28;20022;-79
2023/08/09 09:21:10;;;;;;;5.82;2.70;;;20.10;99.30;;;;;;5015648;28;20034;-79
2023/08/09 09:23:37;;;;;;;7.32;2.40;;;20.20;99.10;;;;;;5015178;28;20018;-79
2023/08/09 09:26:17;;;;;;;4.93;1.98;;;20.40;98.80;;;;;;5015254;28;20433;-79
2023/08/09 09:28:47;;;;;;;4.13;2.60;;;20.40;98.10;;;;;;5015942;28;20021;-79
2023/08/09 09:31:17;;;;;;;4.75;2.33;;;20.50;97.80;;;;;;5031654;28;20048;-77
2023/08/09 09:33:52;;;;;;;4.40;2.47;;;20.60;97.50;;;;;;5015456;28;20029;-78
2023/08/09 09:36:18;;;;;;;6.60;2.42;;;20.60;96.90;;;;;;5014941;28;20072;-78
2023/08/09 09:38:45;;;;;;;4.20;1.98;;;20.60;96.40;;;;;;5031574;28;20518;-80
2023/08/09 09:41:15;;;;;;;5.40;2.15;;;20.70;96.10;;;;;;5015018;28;20038;-85
2023/08/09 09:43:42;;;;;;;3.55;1.58;;;20.70;95.70;;;;;;5032743;28;20108;-84
2023/08/09 09:46:22;;;;;;;3.45;1.85;;;20.80;95.40;;;;;;5015390;28;20071;-85
2023/08/09 09:48:49;;;;;;;4.10;1.92;;;20.90;95.20;;;;;;5015154;28;20029;-78
2023/08/09 09:51:19;;;;;;;3.72;1.65;;;21.00;94.90;;;;;;5031359;28;20072;-78
2023/08/09 09:53:46;;;;;;;4.05;1.50;;;21.00;94.70;;;;;;4998720;28;20508;-78
2023/08/09 09:56:13;;;;;;;3.72;1.35;;;21.10;94.10;;;;;;5015129;28;20449;-79
2023/08/09 09:58:40;;;;;;;3.83;1.20;;;21.10;94.00;;;;;;5031260;28;20097;-78
2023/08/09 10:01:08;;;;;;;2.78;1.10;;;21.20;93.90;;;;;;4999056;28;20488;-79
2023/08/09 10:03:38;;;;;;;2.70;0.90;;;21.30;93.50;;;;;;5018828;28;20050;-79
2023/08/09 10:06:05;;;;;;;2.95;0.90;;;21.40;93.30;;;;;;5036107;28;20014;-79
2023/08/09 10:08:33;;;;;;;3.17;1.02;;;21.50;92.90;;;;;;5036161;28;20093;-79
2023/08/09 10:11:01;;;;;;;1.85;0.80;;;21.60;92.10;;;;;;5018794;28;20071;-77
2023/08/09 10:13:29;;;;;;;3.55;1.13;;;21.70;91.90;;;;;;5035911;28;20025;-80
2023/08/09 10:15:59;;;;;;;1.65;0.60;;;21.70;91.60;;;;;;5018493;28;20489;-78
2023/08/09 10:18:39;;;;;;;2.58;0.80;;;21.80;91.30;;;;;;5018202;28;20025;-85
2023/08/09 10:21:05;;;;;;;2.22;0.80;;;21.70;90.70;;;;;;5034774;28;20490;-87
2023/08/09 10:23:31;;;;;;;2.42;0.90;;;21.60;90.00;;;;;;5002257;28;20079;-87
2023/08/09 10:25:58;;;;;;;1.48;0.60;;;21.40;87.60;;;;;;5001859;28;20029;-78
2023/08/09 10:28:39;;;;;;;4.50;0.70;;;21.30;88.10;;;;;;5035704;28;20031;-83
2023/08/09 10:31:04;;;;;;;1.65;0.70;;;21.20;87.80;;;;;;5034756;28;20079;-85
2023/08/09 10:33:31;;;;;;;2.22;0.93;;;21.20;87.90;;;;;;5018140;28;20029;-84
2023/08/09 10:35:58;;;;;;;2.13;0.75;;;21.20;86.80;;;;;;5035351;28;20099;-80
2023/08/09 10:38:30;;;;;;;1.77;0.70;;;21.30;86.90;;;;;;5017188;28;20432;-78
2023/08/09 10:40:56;;;;;;;2.53;1.10;;;21.20;86.60;;;;;;5034608;28;20417;-79
2023/08/09 10:43:24;;;;;;;3.15;1.35;;;21.20;86.50;;;;;;5000496;28;20053;-80
2023/08/09 10:45:52;;;;;;;2.53;0.98;;;21.40;86.30;;;;;;5034775;28;20038;-80
2023/08/09 10:48:21;;;;;;;1.95;0.70;;;21.50;86.90;;;;;;5017808;28;20022;-85
2023/08/09 10:51:08;;;;;;;5.13;1.00;;;21.70;87.00;;;;;;5034229;28;20117;-85
2023/08/09 10:54:01;;;;;;;3.58;1.33;;;21.90;86.00;;;;;;5034124;28;20100;-87
2023/08/09 10:56:42;;;;;;;4.22;1.30;;;22.00;84.60;;;;;;5034191;28;20195;-87
2023/08/09 10:59:21;;;;;;;3.90;1.65;;;22.10;84.40;;;;;;5034070;28;20478;-88
2023/08/09 11:01:47;;;;;;;3.50;1.70;;;22.20;83.70;;;;;;5017430;28;20033;-85
2023/08/09 11:04:14;;;;;;;4.50;1.58;;;22.30;83.30;;;;;;5001515;28;20430;-83
2023/08/09 11:06:45;;;;;;;5.13;1.52;;;22.40;82.90;;;;;;5017404;28;20148;-77
2023/08/09 11:09:15;;;;;;;3.03;1.38;;;22.40;82.30;;;;;;5033768;28;20477;-79
2023/08/09 11:11:42;;;;;;;3.22;1.58;;;22.40;81.90;;;;;;5033645;28;20040;-79
2023/08/09 11:14:10;;;;;;;3.30;1.52;;;22.40;81.30;;;;;;5017036;28;20116;-76
2023/08/09 11:16:35;;;;;;;4.03;2.13;;;22.40;80.80;;;;;;5012033;28;20033;-77
2023/08/09 11:19:05;;;;;;;4.32;2.25;;;22.10;80.40;;;;;;5033482;28;20040;-80
2023/08/09 11:21:57;;;;;;;5.10;2.17;;;22.10;80.20;;;;;;5016635;28;20029;-87
2023/08/09 11:24:26;;;;;;;3.83;1.63;;;22.10;80.30;;;;;;5015455;28;20500;-85
2023/08/09 11:26:57;;;;;;;3.40;1.40;;;22.10;80.40;;;;;;5019467;28;20038;-85
2023/08/09 11:29:25;;;;;;;4.05;1.75;;;22.20;80.80;;;;;;5017217;28;20079;-85
2023/08/09 11:31:54;;;;;;;3.92;2.20;;;22.30;79.90;;;;;;5033251;28;20025;-82
2023/08/09 11:34:22;;;;;;;4.80;2.00;;;22.40;79.50;;;;;;5033244;28;20056;-83
2023/08/09 11:36:53;;;;;;;4.00;1.42;;;22.40;78.00;;;;;;5016465;28;20051;-81
2023/08/09 11:39:21;;;;;;;6.53;1.58;;;22.40;78.50;;;;;;5033540;28;20030;-82
2023/08/09 11:41:55;;;;;;;3.28;1.45;;;22.50;78.80;;;;;;5016545;28;20536;-81
2023/08/09 11:44:32;;;;;;;3.55;1.58;;;22.60;77.70;;;;;;5033476;28;20025;-80
2023/08/09 11:47:00;;;;;;;3.20;1.50;;;22.80;76.10;;;;;;5033466;28;20436;-83
2023/08/09 11:49:30;;;;;;;3.92;1.00;;;23.10;76.40;;;;;;5016729;28;20064;-81
2023/08/09 11:51:57;;;;;;;3.90;1.38;;;23.90;77.50;;;;;;5000349;28;20030;-81
2023/08/09 11:54:23;;;;;;;3.88;0.93;;;24.70;76.00;;;;;;5032996;28;20029;-82
2023/08/09 11:56:49;;;;;;;2.58;0.98;;;24.90;73.40;;;;;;5016839;28;20029;-83
2023/08/09 11:59:20;;;;;;;4.85;0.90;;;25.00;71.00;;;;;;5016438;28;20562;-83
2023/08/09 12:01:49;;;;;;;4.20;0.90;;;24.80;69.70;;;;;;5032634;28;20048;-81
2023/08/09 12:04:19;;;;;;;3.22;1.00;;;24.80;68.80;;;;;;5016541;28;20017;-86
2023/08/09 12:06:56;;;;;;;2.05;1.00;;;24.60;66.90;;;;;;5034104;28;20029;-86
2023/08/09 12:09:39;;;;;;;2.35;0.85;;;24.50;67.70;;;;;;5033291;28;20075;-87
2023/08/09 12:12:14;;;;;;;3.60;0.80;;;25.00;68.10;;;;;;5032935;28;20036;-87
2023/08/09 12:14:41;;;;;;;1.95;0.70;;;25.60;65.60;;;;;;5033416;28;20068;-88
2023/08/09 12:17:16;;;;;;;1.55;0.60;;;26.20;65.30;;;;;;5032839;28;20025;-87
2023/08/09 12:19:42;;;;;;;2.45;0.73;;;26.80;66.00;;;;;;5032649;28;20385;-84
2023/08/09 12:22:08;;;;;;;2.80;0.80;;;27.50;65.70;;;;;;5016353;28;20025;-90
2023/08/09 12:24:33;;;;;;;2.65;0.90;;;27.90;63.40;;;;;;5016237;28;20021;-86
2023/08/09 12:26:59;;;;;;;1.88;0.63;;;28.20;62.10;;;;;;5016537;28;20144;-89
2023/08/09 12:29:25;;;;;;;1.88;0.60;;;28.10;60.80;;;;;;5016582;28;20469;-83
2023/08/09 12:31:53;;;;;;;2.67;0.90;;;28.00;61.00;;;;;;5015878;28;20033;-83
2023/08/09 12:34:19;;;;;;;2.95;0.88;;;27.90;59.50;;;;;;5032415;28;20028;-86
2023/08/09 12:36:45;;;;;;;2.60;0.95;;;27.40;59.10;;;;;;5032013;28;20053;-83
2023/08/09 12:39:11;;;;;;;2.83;0.80;;;26.80;59.10;;;;;;5015666;28;20095;-86